Time;durP1;ratioP1;P1;durP2;ratioP2;P2;SDS_P1;SDS_P2;PMS_P1;PMS_P2;Temp;Humidity;BMP_temperature;BMP_pressure;BME280_temperature;BME280_humidity;BME280_pressure;Samples;Min_cycle;Max_cycle;Signal;HPM_P1;HPM_P2
2022/08/12 00:43:25;;;;;;;5.97;5.47;;;;;;;;;;5072393;28;20039;-84
2022/08/12 00:48:37;;;;;;;6.32;5.82;;;;;;;;;;5072407;28;20052;-84
2022/08/12 00:51:03;;;;;;;6.85;6.25;;;;;;;;;;5072219;28;20040;-84
2022/08/12 00:53:30;;;;;;;6.38;5.78;;;;;;;;;;5072294;28;20038;-84
2022/08/12 00:55:57;;;;;;;5.70;5.20;;;;;;;;;;5071082;28;20082;-84
2022/08/12 00:58:24;;;;;;;6.78;6.28;;;;;;;;;;5071055;28;20036;-84
2022/08/12 01:00:51;;;;;;;6.05;5.45;;;;;;;;;;5071855;28;20033;-84
2022/08/12 01:03:20;;;;;;;6.03;5.53;;;;;;;;;;5070924;28;20028;-84
2022/08/12 01:11:31;;;;;;;6.30;5.80;;;;;;;;;;5072192;28;20035;-84
2022/08/12 01:14:01;;;;;;;6.88;6.28;;;;;;;;;;5072341;28;20082;-84
2022/08/12 01:16:27;;;;;;;6.30;5.80;;;;;;;;;;5071739;28;20040;-84
2022/08/12 01:18:55;;;;;;;6.15;5.60;;;;;;;;;;5070931;28;20024;-83
2022/08/12 01:21:27;;;;;;;6.57;6.03;;;;;;;;;;5071841;28;20480;-84
2022/08/12 01:24:12;;;;;;;6.95;6.30;;;;;;;;;;5070860;28;20028;-84
2022/08/12 01:26:40;;;;;;;6.22;5.72;;;;;;;;;;5072176;28;20107;-84
2022/08/12 01:29:06;;;;;;;6.18;5.65;;;;;;;;;;5070561;28;20024;-83
2022/08/12 01:31:34;;;;;;;7.10;6.60;;;;;;;;;;5072112;28;20036;-84
2022/08/12 01:34:07;;;;;;;6.63;6.03;;;;;;;;;;5070510;28;20128;-83
2022/08/12 01:36:45;;;;;;;7.03;6.43;;;;;;;;;;5070640;28;20032;-84
2022/08/12 01:39:14;;;;;;;6.28;5.85;;;;;;;;;;5071917;28;20037;-84
2022/08/12 01:41:44;;;;;;;6.80;6.22;;;;;;;;;;5071616;28;20025;-83
2022/08/12 01:44:11;;;;;;;7.15;6.55;;;;;;;;;;5071972;28;20036;-84
2022/08/12 01:46:37;;;;;;;7.05;6.45;;;;;;;;;;5071547;28;20494;-84
2022/08/12 01:49:22;;;;;;;7.50;6.80;;;;;;;;;;5070597;28;20119;-84
2022/08/12 01:51:53;;;;;;;6.13;5.63;;;;;;;;;;5071675;28;20524;-84
2022/08/12 01:54:21;;;;;;;8.18;7.47;;;;;;;;;;5070239;28;20032;-84
2022/08/12 01:56:50;;;;;;;6.57;6.07;;;;;;;;;;5071592;28;20036;-84
2022/08/12 02:02:10;;;;;;;7.47;6.88;;;;;;;;;;5071509;28;20067;-84
2022/08/12 02:14:00;;;;;;;7.53;6.88;;;;;;;;;;5074853;28;20157;-84
2022/08/12 02:16:31;;;;;;;6.55;5.63;;;;;;;;;;5073531;28;20058;-84
2022/08/12 02:19:16;;;;;;;7.05;6.45;;;;;;;;;;5073753;28;20090;-84
2022/08/12 02:21:49;;;;;;;6.97;6.25;;;;;;;;;;5073765;28;20029;-84
2022/08/12 02:24:19;;;;;;;6.45;5.90;;;;;;;;;;5073522;28;20028;-84
2022/08/12 02:26:47;;;;;;;6.78;6.10;;;;;;;;;;5075041;28;20024;-84
2022/08/12 02:29:14;;;;;;;6.88;5.65;;;;;;;;;;5073382;28;20036;-84
2022/08/12 02:31:44;;;;;;;5.78;5.25;;;;;;;;;;5074907;28;20051;-84
2022/08/12 02:34:12;;;;;;;5.65;5.15;;;;;;;;;;5073484;28;20102;-84
2022/08/12 02:36:39;;;;;;;5.63;5.20;;;;;;;;;;5074635;28;20078;-84
2022/08/12 02:39:08;;;;;;;6.00;5.40;;;;;;;;;;5074420;28;20467;-84
2022/08/12 02:41:36;;;;;;;6.13;5.63;;;;;;;;;;5073394;28;20391;-84
2022/08/12 02:44:07;;;;;;;6.72;6.07;;;;;;;;;;5074407;28;20471;-85
2022/08/12 02:46:35;;;;;;;6.80;6.10;;;;;;;;;;5072918;28;20056;-84
2022/08/12 02:49:05;;;;;;;6.15;5.57;;;;;;;;;;5074300;28;20029;-84
2022/08/12 02:51:38;;;;;;;5.63;5.13;;;;;;;;;;5073049;28;20138;-84
2022/08/12 02:54:04;;;;;;;5.78;5.38;;;;;;;;;;5074480;28;20494;-84
2022/08/12 02:56:31;;;;;;;5.60;5.20;;;;;;;;;;5074068;28;20202;-84
2022/08/12 02:58:58;;;;;;;6.45;5.85;;;;;;;;;;5074345;28;20482;-84
2022/08/12 03:01:34;;;;;;;5.63;5.22;;;;;;;;;;5074141;28;20036;-84
2022/08/12 03:04:01;;;;;;;7.43;6.20;;;;;;;;;;5074296;28;20360;-83
2022/08/12 03:06:32;;;;;;;6.03;5.43;;;;;;;;;;5072728;28;20024;-83
2022/08/12 03:08:59;;;;;;;6.78;6.20;;;;;;;;;;5072891;28;20090;-84
2022/08/12 03:11:26;;;;;;;6.28;5.78;;;;;;;;;;5072655;28;20031;-84
2022/08/12 03:13:54;;;;;;;6.10;5.60;;;;;;;;;;5074046;28;20383;-84
2022/08/12 03:16:21;;;;;;;6.38;5.75;;;;;;;;;;5073889;28;20028;-84
2022/08/12 03:18:48;;;;;;;6.07;5.57;;;;;;;;;;5073868;28;20029;-84
2022/08/12 03:21:18;;;;;;;6.55;5.93;;;;;;;;;;5073884;28;20099;-82
2022/08/12 03:23:45;;;;;;;9.05;8.20;;;;;;;;;;5073141;28;20032;-84
2022/08/12 03:26:12;;;;;;;48.97;43.45;;;;;;;;;;5073853;28;20032;-84
2022/08/12 03:31:28;;;;;;;6.20;5.60;;;;;;;;;;5073619;28;20092;-84
2022/08/12 03:33:57;;;;;;;6.57;4.85;;;;;;;;;;5073571;28;20032;-84
2022/08/12 03:36:24;;;;;;;5.50;4.82;;;;;;;;;;5073233;28;20036;-84
2022/08/12 03:39:20;;;;;;;5.63;5.13;;;;;;;;;;5073721;28;20025;-83
2022/08/12 03:41:40;;;;;;;9.73;8.73;;;;;;;;;;5073193;28;20024;-83
2022/08/12 04:01:13;;;;;;;4.88;4.47;;;;;;;;;;5072967;28;20075;-83
2022/08/12 04:03:51;;;;;;;18.13;16.42;;;;;;;;;;5073080;28;20112;-84
2022/08/12 04:06:25;;;;;;;7.35;6.68;;;;;;;;;;5071509;28;20031;-84
2022/08/12 04:08:55;;;;;;;38.65;34.92;;;;;;;;;;5071538;28;20437;-83
2022/08/12 04:14:06;;;;;;;;;;;;;;;;;;5073353;28;20089;-84
2022/08/12 04:16:35;;;;;;;6.35;5.30;;;;;;;;;;5095244;27;20014;-83
2022/08/12 04:19:01;;;;;;;5.80;5.30;;;;;;;;;;5099763;28;20425;-83
2022/08/12 04:21:28;;;;;;;5.85;5.28;;;;;;;;;;5102541;28;20383;-83
2022/08/12 04:23:55;;;;;;;6.00;5.15;;;;;;;;;;5105084;28;20027;-84
2022/08/12 04:26:21;;;;;;;5.00;4.57;;;;;;;;;;5112001;28;20039;-84
2022/08/12 04:28:47;;;;;;;6.00;4.80;;;;;;;;;;5113090;28;20027;-84
2022/08/12 04:31:13;;;;;;;6.18;5.03;;;;;;;;;;5111897;28;20397;-84
2022/08/12 04:33:41;;;;;;;4.78;4.38;;;;;;;;;;5112722;28;20402;-84
2022/08/12 04:36:08;;;;;;;4.78;4.38;;;;;;;;;;5110872;28;20031;-83
2022/08/12 04:38:35;;;;;;;5.60;5.10;;;;;;;;;;5092487;28;20486;-82
2022/08/12 04:41:03;;;;;;;5.70;4.75;;;;;;;;;;5092745;28;20049;-82
2022/08/12 04:43:29;;;;;;;8.95;6.50;;;;;;;;;;5092631;28;20352;-82
2022/08/12 04:45:55;;;;;;;11.43;8.07;;;;;;;;;;5092799;28;20471;-82
2022/08/12 04:48:21;;;;;;;10.77;9.48;;;;;;;;;;5092544;28;20048;-82
2022/08/12 04:50:47;;;;;;;7.28;5.55;;;;;;;;;;5092539;28;20023;-82
2022/08/12 04:53:14;;;;;;;5.63;5.00;;;;;;;;;;5092549;28;20063;-82
2022/08/12 04:55:41;;;;;;;6.28;5.18;;;;;;;;;;5092348;28;20063;-83
2022/08/12 04:58:08;;;;;;;5.47;4.70;;;;;;;;;;5091231;28;20036;-84
2022/08/12 05:00:34;;;;;;;5.72;5.20;;;;;;;;;;5092369;28;20028;-84
2022/08/12 05:03:00;;;;;;;5.28;4.63;;;;;;;;;;5091278;28;20111;-82
2022/08/12 05:05:27;;;;;;;5.97;5.38;;;;;;;;;;5092601;28;20051;-82
2022/08/12 05:07:53;;;;;;;5.25;4.78;;;;;;;;;;5092282;28;20031;-83
2022/08/12 05:10:23;;;;;;;5.38;4.97;;;;;;;;;;5091263;28;20055;-82
2022/08/12 05:12:55;;;;;;;6.07;5.28;;;;;;;;;;5092187;28;20462;-83
2022/08/12 05:15:21;;;;;;;5.25;4.75;;;;;;;;;;5092493;28;20096;-81
2022/08/12 05:17:47;;;;;;;5.38;4.88;;;;;;;;;;5092136;28;20032;-82
2022/08/12 05:20:14;;;;;;;7.80;5.03;;;;;;;;;;5091026;28;20042;-81
2022/08/12 05:22:44;;;;;;;5.68;5.00;;;;;;;;;;5092152;28;20032;-83
2022/08/12 05:25:10;;;;;;;6.05;4.70;;;;;;;;;;5092500;28;20032;-82
2022/08/12 05:27:37;;;;;;;5.75;4.72;;;;;;;;;;5091532;28;20034;-82
2022/08/12 05:30:05;;;;;;;5.43;4.95;;;;;;;;;;5082370;28;20024;-82
2022/08/12 05:32:31;;;;;;;4.20;3.90;;;;;;;;;;5092446;28;20032;-79
2022/08/12 05:34:57;;;;;;;7.43;5.03;;;;;;;;;;5081447;28;20109;-79
2022/08/12 05:37:23;;;;;;;5.13;4.53;;;;;;;;;;5091606;28;20032;-78
2022/08/12 05:39:50;;;;;;;4.35;3.95;;;;;;;;;;5083762;28;20031;-78
2022/08/12 05:42:17;;;;;;;6.43;5.68;;;;;;;;;;5097562;28;20103;-78
2022/08/12 05:44:43;;;;;;;6.25;4.75;;;;;;;;;;5102064;28;20073;-78
2022/08/12 05:47:11;;;;;;;5.22;4.72;;;;;;;;;;5103808;28;20043;-78
2022/08/12 05:49:39;;;;;;;8.30;6.70;;;;;;;;;;5082247;28;20360;-79
2022/08/12 05:52:06;;;;;;;4.57;4.18;;;;;;;;;;5075018;28;20082;-79
2022/08/12 05:54:33;;;;;;;5.78;4.72;;;;;;;;;;5075545;28;20033;-80
2022/08/12 05:56:59;;;;;;;6.57;5.00;;;;;;;;;;5074628;28;20028;-77
2022/08/12 05:59:25;;;;;;;11.80;5.28;;;;;;;;;;5086843;28;20036;-76
2022/08/12 06:01:57;;;;;;;5.45;5.05;;;;;;;;;;5094898;28;20475;-78
2022/08/12 06:04:23;;;;;;;5.38;4.88;;;;;;;;;;5083107;28;20093;-79
2022/08/12 06:06:52;;;;;;;7.00;5.22;;;;;;;;;;5075926;28;20035;-79
2022/08/12 06:09:18;;;;;;;6.05;5.47;;;;;;;;;;5084537;28;20506;-80
2022/08/12 06:11:46;;;;;;;10.07;9.18;;;;;;;;;;5086348;28;20383;-80
2022/08/12 06:14:12;;;;;;;21.17;19.42;;;;;;;;;;5086698;28;20038;-80
2022/08/12 06:16:38;;;;;;;11.20;10.10;;;;;;;;;;5075757;28;20028;-77
2022/08/12 06:19:06;;;;;;;6.78;6.18;;;;;;;;;;5082472;28;20114;-77
2022/08/12 06:21:33;;;;;;;37.65;34.40;;;;;;;;;;5074550;28;20021;-77
2022/08/12 06:24:00;;;;;;;18.02;16.50;;;;;;;;;;5074548;28;20025;-78
2022/08/12 06:26:26;;;;;;;5.38;4.60;;;;;;;;;;5074542;28;20047;-77
2022/08/12 06:28:53;;;;;;;10.38;9.43;;;;;;;;;;5080912;28;20101;-77
2022/08/12 06:31:19;;;;;;;22.83;18.80;;;;;;;;;;5092125;28;20043;-77
2022/08/12 06:33:46;;;;;;;21.70;19.55;;;;;;;;;;5084048;28;20544;-78
2022/08/12 06:36:13;;;;;;;13.43;12.20;;;;;;;;;;5073831;28;20035;-77
2022/08/12 06:38:40;;;;;;;13.32;12.07;;;;;;;;;;5107732;28;20042;-77
2022/08/12 06:43:52;;;;;;;5.47;4.97;;;;;;;;;;5102668;28;20054;-78
2022/08/12 06:46:25;;;;;;;5.35;4.72;;;;;;;;;;5104587;28;20066;-77
2022/08/12 06:48:56;;;;;;;5.10;4.20;;;;;;;;;;5112398;28;20146;-77
2022/08/12 06:51:26;;;;;;;5.28;4.85;;;;;;;;;;5114379;28;20093;-78
2022/08/12 06:53:52;;;;;;;5.03;4.60;;;;;;;;;;5108839;28;20361;-79
2022/08/12 06:56:19;;;;;;;7.88;4.80;;;;;;;;;;5098813;28;20490;-79
2022/08/12 06:58:45;;;;;;;5.15;4.55;;;;;;;;;;5096034;28;20020;-79
2022/08/12 07:01:11;;;;;;;5.95;4.75;;;;;;;;;;5094064;28;20144;-77
2022/08/12 07:03:38;;;;;;;5.40;4.57;;;;;;;;;;5092991;28;20464;-78
2022/08/12 07:06:10;;;;;;;5.95;5.03;;;;;;;;;;5094042;28;20032;-78
2022/08/12 07:08:37;;;;;;;6.15;5.55;;;;;;;;;;5093428;28;20031;-76
2022/08/12 07:11:05;;;;;;;5.30;4.80;;;;;;;;;;5093352;28;20025;-78
2022/08/12 07:13:34;;;;;;;7.55;5.10;;;;;;;;;;5092958;28;20034;-80
2022/08/12 07:16:01;;;;;;;7.78;5.13;;;;;;;;;;5073352;28;20039;-79
2022/08/12 07:18:31;;;;;;;6.50;5.85;;;;;;;;;;5072710;28;20419;-78
2022/08/12 07:20:59;;;;;;;5.03;4.53;;;;;;;;;;5084013;28;20103;-80
2022/08/12 07:23:26;;;;;;;5.88;5.32;;;;;;;;;;5073158;28;20376;-77
2022/08/12 07:25:53;;;;;;;5.45;4.90;;;;;;;;;;5078330;28;20035;-77
2022/08/12 07:31:10;;;;;;;22.27;19.90;;;;;;;;;;5078225;28;20036;-79
2022/08/12 07:33:37;;;;;;;16.42;10.32;;;;;;;;;;5110312;28;20036;-78
2022/08/12 07:36:05;;;;;;;10.20;7.35;;;;;;;;;;5072814;28;20043;-79
2022/08/12 07:38:32;;;;;;;6.80;5.65;;;;;;;;;;5076339;28;20055;-77
2022/08/12 07:40:58;;;;;;;6.88;5.93;;;;;;;;;;5085131;28;20036;-77
2022/08/12 07:43:26;;;;;;;5.80;5.30;;;;;;;;;;5093120;28;20026;-78
2022/08/12 07:45:53;;;;;;;7.22;5.97;;;;;;;;;;5081445;28;20479;-78
2022/08/12 07:48:20;;;;;;;5.55;5.15;;;;;;;;;;5090734;28;20047;-76
2022/08/12 07:50:46;;;;;;;5.57;4.90;;;;;;;;;;5072957;28;20124;-77
2022/08/12 07:53:12;;;;;;;17.33;15.05;;;;;;;;;;5073092;28;20035;-77
2022/08/12 07:55:38;;;;;;;8.07;7.38;;;;;;;;;;5082890;28;20058;-78
2022/08/12 07:58:04;;;;;;;6.00;5.20;;;;;;;;;;5083468;28;20410;-79
2022/08/12 08:00:33;;;;;;;6.32;5.43;;;;;;;;;;5106331;28;20119;-80
2022/08/12 08:02:59;;;;;;;5.80;5.30;;;;;;;;;;5113143;28;20478;-79
2022/08/12 08:05:26;;;;;;;7.18;5.60;;;;;;;;;;5095829;28;20024;-79
2022/08/12 08:07:54;;;;;;;7.03;6.38;;;;;;;;;;5092909;28;20104;-78
2022/08/12 08:10:21;;;;;;;6.45;5.85;;;;;;;;;;5083532;28;20113;-78
2022/08/12 08:12:53;;;;;;;6.07;5.28;;;;;;;;;;5076137;28;20103;-79
2022/08/12 08:15:19;;;;;;;5.53;4.80;;;;;;;;;;5087303;28;20073;-79
2022/08/12 08:18:00;;;;;;;11.10;9.93;;;;;;;;;;5092350;28;20032;-78
2022/08/12 08:20:27;;;;;;;12.30;11.00;;;;;;;;;;5092603;28;20051;-78
2022/08/12 08:22:58;;;;;;;11.25;7.60;;;;;;;;;;5092730;28;20031;-78
2022/08/12 08:25:31;;;;;;;5.57;5.07;;;;;;;;;;5078288;28;20081;-78
2022/08/12 08:28:07;;;;;;;6.75;6.15;;;;;;;;;;5085177;28;20039;-78
2022/08/12 08:30:36;;;;;;;5.32;4.82;;;;;;;;;;5082625;28;20491;-78
2022/08/12 08:33:02;;;;;;;6.07;5.28;;;;;;;;;;5092878;28;20097;-78
2022/08/12 08:35:28;;;;;;;7.38;6.68;;;;;;;;;;5080613;28;20035;-79
2022/08/12 08:38:05;;;;;;;12.65;11.38;;;;;;;;;;5089067;28;20078;-77
2022/08/12 08:43:16;;;;;;;50.05;45.85;;;;;;;;;;5078393;28;20135;-81
2022/08/12 08:45:47;;;;;;;14.07;12.63;;;;;;;;;;5080900;28;20103;-79
2022/08/12 08:48:17;;;;;;;11.88;10.73;;;;;;;;;;5090225;28;20547;-79
2022/08/12 08:50:44;;;;;;;9.80;9.00;;;;;;;;;;5111800;28;20057;-78
2022/08/12 08:53:11;;;;;;;6.78;4.60;;;;;;;;;;5086389;28;20028;-76
2022/08/12 08:55:39;;;;;;;9.98;5.47;;;;;;;;;;5089453;28;20101;-77
2022/08/12 08:58:05;;;;;;;5.63;4.65;;;;;;;;;;5091741;28;20099;-78
2022/08/12 09:00:32;;;;;;;5.43;4.70;;;;;;;;;;5091216;28;20360;-83
2022/08/12 09:03:03;;;;;;;14.15;5.20;;;;;;;;;;5086952;28;20052;-81
2022/08/12 09:05:29;;;;;;;6.28;4.93;;;;;;;;;;5072090;28;20424;-81
2022/08/12 09:07:58;;;;;;;8.15;7.30;;;;;;;;;;5091738;28;20426;-80
2022/08/12 09:10:24;;;;;;;8.95;6.28;;;;;;;;;;5091407;28;20055;-81
2022/08/12 09:15:35;;;;;;;7.78;6.97;;;;;;;;;;5092331;28;20089;-81
2022/08/12 09:18:01;;;;;;;6.57;6.00;;;;;;;;;;5086841;28;20040;-84
2022/08/12 09:20:32;;;;;;;12.18;4.78;;;;;;;;;;5087176;28;20523;-81
2022/08/12 09:23:00;;;;;;;7.53;4.72;;;;;;;;;;5101804;28;20068;-82
2022/08/12 09:25:26;;;;;;;7.88;7.20;;;;;;;;;;5103354;28;20055;-82
2022/08/12 09:27:55;;;;;;;5.40;4.90;;;;;;;;;;5095884;28;20028;-82
2022/08/12 09:30:21;;;;;;;13.65;7.78;;;;;;;;;;5089405;28;20032;-80
2022/08/12 09:32:50;;;;;;;43.08;16.77;;;;;;;;;;5088169;28;20039;-82
2022/08/12 09:35:24;;;;;;;79.00;31.20;;;;;;;;;;5081593;28;20025;-80
2022/08/12 09:37:51;;;;;;;23.83;13.30;;;;;;;;;;5079974;28;20100;-82
2022/08/12 09:40:18;;;;;;;12.65;8.00;;;;;;;;;;5075526;28;20368;-82
2022/08/12 09:45:31;;;;;;;11.00;8.63;;;;;;;;;;5095516;28;20070;-81
2022/08/12 09:48:02;;;;;;;14.10;12.70;;;;;;;;;;5094545;28;20075;-81
2022/08/12 09:50:28;;;;;;;8.32;7.75;;;;;;;;;;5095667;28;20032;-79
2022/08/12 09:53:13;;;;;;;6.10;5.50;;;;;;;;;;5098618;28;20031;-83
2022/08/12 09:55:46;;;;;;;8.70;7.93;;;;;;;;;;5105466;28;20031;-79
2022/08/12 09:58:12;;;;;;;5.40;5.00;;;;;;;;;;5090748;28;20040;-81
2022/08/12 10:00:38;;;;;;;10.82;9.85;;;;;;;;;;5086110;28;20072;-84
2022/08/12 10:03:06;;;;;;;8.88;7.68;;;;;;;;;;5077429;28;20032;-81
2022/08/12 10:05:35;;;;;;;6.32;5.82;;;;;;;;;;5074863;28;20062;-83
2022/08/12 10:08:02;;;;;;;5.93;5.22;;;;;;;;;;5082236;28;20020;-68
2022/08/12 10:10:28;;;;;;;6.40;5.78;;;;;;;;;;5080968;28;20035;-80
2022/08/12 10:15:45;;;;;;;6.40;5.93;;;;;;;;;;5077106;28;20089;-79
2022/08/12 10:18:12;;;;;;;10.98;10.07;;;;;;;;;;5095812;28;20044;-80
2022/08/12 10:20:39;;;;;;;9.07;8.30;;;;;;;;;;5090287;28;20036;-80
2022/08/12 10:23:05;;;;;;;5.18;4.70;;;;;;;;;;5090988;28;20062;-81
2022/08/12 10:31:02;;;;;;;4.82;4.18;;;;;;;;;;5084082;28;20441;-80
2022/08/12 10:33:29;;;;;;;7.05;5.75;;;;;;;;;;5102629;28;20489;-80
2022/08/12 10:35:57;;;;;;;6.03;5.00;;;;;;;;;;5098170;28;20039;-78
2022/08/12 10:38:23;;;;;;;5.60;4.53;;;;;;;;;;5082153;28;20090;-80
2022/08/12 10:43:41;;;;;;;5.15;4.75;;;;;;;;;;5089382;28;20441;-80
2022/08/12 10:46:16;;;;;;;4.82;4.43;;;;;;;;;;5082896;28;20063;-80
2022/08/12 10:48:46;;;;;;;5.32;4.60;;;;;;;;;;5095067;28;20039;-80
2022/08/12 10:51:13;;;;;;;4.70;4.00;;;;;;;;;;5094281;28;20113;-80
2022/08/12 10:53:42;;;;;;;6.47;5.97;;;;;;;;;;5086067;28;20036;-79
2022/08/12 10:56:10;;;;;;;6.80;6.15;;;;;;;;;;5104699;28;20027;-80
2022/08/12 10:58:39;;;;;;;7.35;5.25;;;;;;;;;;5113202;28;20046;-78
2022/08/12 11:01:09;;;;;;;5.43;4.97;;;;;;;;;;5114404;28;20028;-79
2022/08/12 11:03:36;;;;;;;5.43;4.53;;;;;;;;;;5110649;28;20023;-82
2022/08/12 11:06:11;;;;;;;5.43;4.93;;;;;;;;;;5100536;28;20035;-83
2022/08/12 11:08:38;;;;;;;4.38;4.07;;;;;;;;;;5105872;28;20031;-83
2022/08/12 11:11:07;;;;;;;5.60;5.13;;;;;;;;;;5114253;28;20030;-84
2022/08/12 11:13:36;;;;;;;4.82;4.50;;;;;;;;;;5111934;28;20035;-84
2022/08/12 11:16:05;;;;;;;5.18;4.82;;;;;;;;;;5094006;28;20050;-74
2022/08/12 11:18:31;;;;;;;5.78;5.35;;;;;;;;;;5093501;28;20032;-79
2022/08/12 11:20:58;;;;;;;4.82;4.43;;;;;;;;;;5094425;28;20027;-78
2022/08/12 11:23:24;;;;;;;5.30;4.80;;;;;;;;;;5092801;28;20024;-77
2022/08/12 11:25:51;;;;;;;4.57;4.18;;;;;;;;;;5090869;28;20051;-80
2022/08/12 11:28:17;;;;;;;4.95;4.55;;;;;;;;;;5091151;28;20035;-78
2022/08/12 11:30:43;;;;;;;7.45;5.00;;;;;;;;;;5082747;28;20028;-79
2022/08/12 11:33:10;;;;;;;6.95;6.38;;;;;;;;;;5099004;28;20036;-79
2022/08/12 11:35:37;;;;;;;27.25;24.70;;;;;;;;;;5088619;28;20027;-81
2022/08/12 11:38:04;;;;;;;12.93;11.93;;;;;;;;;;5093299;28;20070;-83
2022/08/12 11:40:30;;;;;;;6.45;5.85;;;;;;;;;;5092934;28;20711;-81
2022/08/12 11:42:59;;;;;;;9.35;7.57;;;;;;;;;;5093549;28;20020;-84
2022/08/12 11:45:25;;;;;;;5.53;5.03;;;;;;;;;;5091890;28;20035;-80
2022/08/12 11:47:53;;;;;;;15.07;13.85;;;;;;;;;;5073174;28;20063;-85
2022/08/12 11:50:20;;;;;;;7.00;5.97;;;;;;;;;;5089744;28;20035;-83
2022/08/12 11:52:49;;;;;;;7.00;6.00;;;;;;;;;;5092655;28;20027;-87
2022/08/12 11:55:16;;;;;;;5.47;5.07;;;;;;;;;;5090574;28;20024;-85
2022/08/12 11:58:01;;;;;;;12.27;9.45;;;;;;;;;;5087797;28;20036;-88
2022/08/12 12:00:30;;;;;;;16.08;14.75;;;;;;;;;;5091465;28;20031;-82
2022/08/12 12:02:56;;;;;;;17.45;15.52;;;;;;;;;;5091342;28;20020;-84
2022/08/12 12:05:22;;;;;;;6.30;5.70;;;;;;;;;;5070988;28;20021;-84
2022/08/12 12:07:48;;;;;;;5.95;5.45;;;;;;;;;;5072017;28;20395;-83
2022/08/12 12:10:17;;;;;;;5.10;4.70;;;;;;;;;;5090101;28;20466;-84
2022/08/12 12:12:44;;;;;;;4.90;4.50;;;;;;;;;;5084013;28;20044;-83
2022/08/12 12:15:10;;;;;;;7.35;6.72;;;;;;;;;;5078356;28;20024;-89
2022/08/12 12:17:38;;;;;;;5.47;5.05;;;;;;;;;;5102071;28;20032;-85
2022/08/12 12:22:50;;;;;;;7.45;6.05;;;;;;;;;;5089313;28;20169;-85
2022/08/12 12:25:16;;;;;;;5.07;4.68;;;;;;;;;;5105895;28;20035;-83
2022/08/12 12:27:50;;;;;;;6.13;5.72;;;;;;;;;;5094486;28;20128;-83
2022/08/12 12:30:16;;;;;;;7.30;5.43;;;;;;;;;;5103438;28;20472;-85
2022/08/12 12:32:43;;;;;;;7.88;5.90;;;;;;;;;;5096402;28;20028;-85
2022/08/12 12:35:09;;;;;;;5.93;4.53;;;;;;;;;;5082556;28;20021;-81
2022/08/12 12:37:49;;;;;;;17.95;16.63;;;;;;;;;;5080452;28;20041;-80
2022/08/12 12:40:15;;;;;;;6.00;5.43;;;;;;;;;;5078585;28;20028;-81
2022/08/12 12:42:41;;;;;;;6.65;6.15;;;;;;;;;;5085672;28;20031;-80
2022/08/12 12:45:08;;;;;;;8.95;5.72;;;;;;;;;;5079713;28;20021;-82
2022/08/12 12:47:34;;;;;;;6.18;5.57;;;;;;;;;;5082663;28;20565;-82
2022/08/12 12:50:00;;;;;;;6.43;5.38;;;;;;;;;;5073690;28;20127;-82
2022/08/12 12:52:26;;;;;;;6.50;5.72;;;;;;;;;;5081674;28;20040;-85
2022/08/12 12:54:54;;;;;;;5.60;5.20;;;;;;;;;;5085071;28;20157;-82
2022/08/12 12:57:21;;;;;;;4.78;4.28;;;;;;;;;;5087784;28;20055;-84
2022/08/12 13:00:13;;;;;;;5.35;4.85;;;;;;;;;;5075693;28;20110;-82
2022/08/12 13:02:39;;;;;;;8.60;5.10;;;;;;;;;;5083174;28;20562;-80
2022/08/12 13:05:05;;;;;;;5.30;4.80;;;;;;;;;;5070613;28;20028;-82
2022/08/12 13:07:31;;;;;;;5.25;4.78;;;;;;;;;;5071910;28;20031;-84
2022/08/12 13:09:58;;;;;;;5.47;4.82;;;;;;;;;;5080893;28;20040;-85
2022/08/12 13:12:24;;;;;;;5.28;4.88;;;;;;;;;;5087148;28;20020;-83
2022/08/12 13:14:50;;;;;;;5.22;4.82;;;;;;;;;;5071558;28;20038;-84
2022/08/12 13:17:20;;;;;;;4.80;4.50;;;;;;;;;;5070603;28;20131;-81
2022/08/12 13:19:46;;;;;;;5.35;4.95;;;;;;;;;;5077994;28;20086;-82
2022/08/12 13:22:16;;;;;;;6.35;5.70;;;;;;;;;;5078381;28;20046;-81
2022/08/12 13:24:43;;;;;;;5.78;5.38;;;;;;;;;;5073771;28;20471;-81
2022/08/12 13:27:09;;;;;;;4.97;4.57;;;;;;;;;;5083556;28;20024;-83
2022/08/12 13:29:37;;;;;;;5.03;4.70;;;;;;;;;;5070151;28;20033;-83
2022/08/12 13:32:06;;;;;;;5.03;4.63;;;;;;;;;;5084920;28;20028;-83
2022/08/12 13:34:33;;;;;;;5.30;4.47;;;;;;;;;;5090597;28;20116;-83
2022/08/12 13:36:59;;;;;;;5.53;4.90;;;;;;;;;;5091520;28;20028;-83
2022/08/12 13:39:25;;;;;;;5.18;4.78;;;;;;;;;;5091504;28;20048;-83
2022/08/12 13:41:54;;;;;;;6.60;6.00;;;;;;;;;;5088946;28;20040;-83
2022/08/12 13:44:21;;;;;;;5.53;4.95;;;;;;;;;;5082331;28;20531;-84
2022/08/12 13:46:48;;;;;;;5.07;4.72;;;;;;;;;;5090303;28;20078;-82
2022/08/12 13:49:14;;;;;;;20.02;18.23;;;;;;;;;;5089889;28;20028;-82
2022/08/12 13:51:41;;;;;;;5.90;5.40;;;;;;;;;;5083764;28;20058;-83
2022/08/12 13:54:10;;;;;;;5.47;4.90;;;;;;;;;;5070016;28;20392;-84
2022/08/12 13:56:37;;;;;;;6.97;6.38;;;;;;;;;;5069952;28;20115;-83
2022/08/12 13:59:06;;;;;;;7.43;6.90;;;;;;;;;;5071449;28;20032;-85
2022/08/12 14:01:33;;;;;;;7.32;6.72;;;;;;;;;;5076802;28;20019;-84
2022/08/12 14:04:03;;;;;;;7.38;6.75;;;;;;;;;;5090344;28;20062;-85
2022/08/12 14:06:29;;;;;;;5.50;5.00;;;;;;;;;;5084034;28;20028;-82
2022/08/12 14:08:55;;;;;;;8.35;7.75;;;;;;;;;;5082061;28;20029;-83
2022/08/12 14:11:21;;;;;;;5.40;4.90;;;;;;;;;;5074703;28;20067;-82
2022/08/12 14:13:58;;;;;;;5.85;5.38;;;;;;;;;;5093774;28;20038;-85
2022/08/12 14:16:26;;;;;;;7.30;6.70;;;;;;;;;;5084779;28;20041;-85
2022/08/12 14:18:53;;;;;;;7.97;7.28;;;;;;;;;;5073165;28;20067;-84
2022/08/12 14:21:19;;;;;;;6.40;5.90;;;;;;;;;;5079792;28;20471;-84
2022/08/12 14:23:54;;;;;;;5.70;4.80;;;;;;;;;;5089962;28;20051;-84
2022/08/12 14:26:23;;;;;;;8.10;5.70;;;;;;;;;;5094513;28;20046;-84
2022/08/12 14:28:52;;;;;;;7.13;4.63;;;;;;;;;;5095012;28;20474;-84
2022/08/12 14:31:20;;;;;;;6.13;5.43;;;;;;;;;;5086969;28;20032;-84
2022/08/12 14:33:54;;;;;;;6.30;5.13;;;;;;;;;;5079053;28;20032;-83
2022/08/12 14:36:22;;;;;;;6.15;5.65;;;;;;;;;;5085383;28;20071;-84
2022/08/12 14:38:49;;;;;;;4.78;4.30;;;;;;;;;;5096867;28;20154;-83
2022/08/12 14:41:17;;;;;;;4.78;4.47;;;;;;;;;;5089615;28;20032;-83
2022/08/12 14:43:45;;;;;;;7.22;6.55;;;;;;;;;;5088436;28;20081;-84
2022/08/12 14:46:21;;;;;;;9.77;8.82;;;;;;;;;;5074277;28;20031;-83
2022/08/12 14:48:49;;;;;;;8.43;7.65;;;;;;;;;;5074746;28;20468;-83
2022/08/12 14:51:17;;;;;;;7.28;6.57;;;;;;;;;;5074703;28;20062;-82
2022/08/12 14:53:44;;;;;;;6.13;5.50;;;;;;;;;;5075228;28;20043;-82
2022/08/12 14:56:11;;;;;;;9.93;7.85;;;;;;;;;;5086946;28;20032;-83
2022/08/12 15:01:40;;;;;;;7.35;6.65;;;;;;;;;;5076455;28;20051;-81
2022/08/12 15:04:07;;;;;;;5.20;4.80;;;;;;;;;;5074171;28;20064;-81
2022/08/12 15:06:34;;;;;;;5.45;4.40;;;;;;;;;;5072998;28;20036;-80
2022/08/12 15:09:01;;;;;;;5.30;4.22;;;;;;;;;;5074084;28;20468;-80
2022/08/12 15:11:27;;;;;;;17.15;4.25;;;;;;;;;;5073887;28;20062;-80
2022/08/12 15:13:54;;;;;;;4.88;2.83;;;;;;;;;;5073824;28;20094;-82
2022/08/12 15:16:20;;;;;;;15.35;3.83;;;;;;;;;;5085978;28;20399;-76
2022/08/12 15:18:46;;;;;;;9.02;3.15;;;;;;;;;;5083620;28;20016;-77
2022/08/12 15:21:13;;;;;;;7.63;3.30;;;;;;;;;;5073416;28;20056;-80
2022/08/12 15:23:39;;;;;;;4.93;3.10;;;;;;;;;;5073882;28;20052;-79
2022/08/12 15:26:12;;;;;;;11.25;3.75;;;;;;;;;;5078790;28;20079;-78
2022/08/12 15:28:40;;;;;;;5.10;3.03;;;;;;;;;;5075810;28;20037;-78
2022/08/12 15:31:11;;;;;;;5.03;3.00;;;;;;;;;;5073512;28;20028;-84
2022/08/12 15:33:37;;;;;;;4.05;2.90;;;;;;;;;;5073709;28;20033;-82
2022/08/12 15:36:04;;;;;;;8.05;2.70;;;;;;;;;;5073479;28;20112;-82
2022/08/12 15:38:30;;;;;;;6.78;3.53;;;;;;;;;;5088333;28;20383;-81
2022/08/12 15:40:58;;;;;;;6.10;3.55;;;;;;;;;;5085149;28;20098;-80
2022/08/12 15:43:25;;;;;;;7.47;3.53;;;;;;;;;;5073604;28;20380;-83
2022/08/12 15:45:52;;;;;;;6.95;3.67;;;;;;;;;;5073432;28;20028;-83
2022/08/12 15:48:18;;;;;;;7.20;3.92;;;;;;;;;;5085786;28;20040;-78
2022/08/12 15:50:44;;;;;;;7.40;6.03;;;;;;;;;;5093657;28;20028;-79
2022/08/12 15:53:11;;;;;;;7.88;6.30;;;;;;;;;;5093221;28;20016;-81
2022/08/12 15:55:40;;;;;;;9.48;7.05;;;;;;;;;;5093283;28;20024;-79
2022/08/12 15:58:06;;;;;;;8.30;7.15;;;;;;;;;;5080639;28;20110;-80
2022/08/12 16:00:37;;;;;;;7.40;6.05;;;;;;;;;;5073079;28;20079;-83
2022/08/12 16:03:06;;;;;;;8.02;6.07;;;;;;;;;;5072925;28;20025;-79
2022/08/12 16:05:35;;;;;;;9.52;6.30;;;;;;;;;;5073260;28;20484;-80
2022/08/12 16:08:01;;;;;;;10.57;7.55;;;;;;;;;;5083965;28;20039;-80
2022/08/12 16:10:28;;;;;;;10.63;9.30;;;;;;;;;;5093324;28;20028;-83
2022/08/12 16:12:56;;;;;;;9.20;8.15;;;;;;;;;;5086518;28;20033;-78
2022/08/12 16:15:23;;;;;;;11.32;7.65;;;;;;;;;;5076599;28;20104;-79
2022/08/12 16:17:50;;;;;;;9.13;7.72;;;;;;;;;;5079799;28;20031;-83
2022/08/12 16:20:25;;;;;;;9.48;6.68;;;;;;;;;;5081296;28;20103;-83
2022/08/12 16:22:52;;;;;;;9.43;7.70;;;;;;;;;;5077971;28;20293;-82
2022/08/12 16:25:25;;;;;;;8.68;6.30;;;;;;;;;;5087894;28;20036;-89
2022/08/12 16:27:51;;;;;;;9.63;7.45;;;;;;;;;;5083051;28;20077;-84
2022/08/12 16:30:22;;;;;;;9.15;7.05;;;;;;;;;;5082113;28;20032;-82
2022/08/12 16:32:49;;;;;;;7.65;6.95;;;;;;;;;;5083633;28;20039;-83
2022/08/12 16:35:16;;;;;;;7.85;7.03;;;;;;;;;;5080329;28;20063;-84
2022/08/12 16:37:44;;;;;;;7.65;6.88;;;;;;;;;;5089790;28;20426;-85
2022/08/12 16:40:11;;;;;;;7.45;6.70;;;;;;;;;;5090722;28;20484;-82
2022/08/12 16:42:43;;;;;;;7.75;7.05;;;;;;;;;;5092986;28;20115;-85